Time;durP1;ratioP1;P1;durP2;ratioP2;P2;SDS_P1;SDS_P2;PMS_P1;PMS_P2;Temp;Humidity;BMP_temperature;BMP_pressure;BME280_temperature;BME280_humidity;BME280_pressure;Samples;Min_cycle;Max_cycle;Signal;HPM_P1;HPM_P2
2022/02/09 00:06:45;;;;;;;2.50;1.80;;;;;;;1.22;84.15;98428.30;105148;1269;73774;-23
2022/02/09 00:09:13;;;;;;;5.10;2.80;;;;;;;1.45;83.02;98434.60;105128;1270;76036;-23
2022/02/09 00:12:03;;;;;;;3.20;1.60;;;;;;;1.23;83.57;98433.20;104942;1270;73413;-23
2022/02/09 00:25:11;;;;;;;4.00;2.40;;;;;;;1.25;83.82;98440.76;104895;1270;74131;-23
2022/02/09 00:41:28;;;;;;;3.50;2.20;;;;;;;1.06;85.71;98439.72;104742;1270;61804;-23
2022/02/09 01:40:01;;;;;;;7.00;3.80;;;;;;;0.98;87.00;98513.61;104789;1273;61123;-24
2022/02/09 01:56:29;;;;;;;7.10;4.00;;;;;;;1.19;85.97;98530.50;104817;1270;75332;-22
2022/02/09 01:58:58;;;;;;;6.90;4.60;;;;;;;1.09;86.62;98525.21;104846;1270;75819;-22
2022/02/09 02:01:26;;;;;;;5.00;3.90;;;;;;;0.95;87.44;98534.80;104823;1271;74241;-22
2022/02/09 02:03:54;;;;;;;6.50;4.60;;;;;;;1.00;87.23;98537.61;104941;1270;61851;-23
2022/02/09 02:06:23;;;;;;;7.60;3.60;;;;;;;1.33;85.98;98538.21;104824;1271;61777;-24
2022/02/09 02:08:52;;;;;;;5.60;3.90;;;;;;;1.33;85.58;98536.48;104924;1270;72859;-23
2022/02/09 02:16:29;;;;;;;8.10;5.30;;;;;;;1.03;86.98;98544.13;104998;1273;61119;-23
2022/02/09 02:19:08;;;;;;;7.00;4.60;;;;;;;1.33;85.87;98551.89;104847;1270;61177;-24
2022/02/09 02:21:57;;;;;;;4.70;3.90;;;;;;;1.48;85.19;98548.73;104787;1271;74127;-24
2022/02/09 03:13:09;;;;;;;7.00;5.30;;;;;;;1.49;85.64;98607.33;105119;1271;61046;-22
2022/02/09 03:16:06;;;;;;;7.20;5.10;;;;;;;1.27;86.69;98599.02;105075;1270;74400;-22
2022/02/09 03:18:44;;;;;;;8.20;4.80;;;;;;;1.30;86.74;98601.80;105033;1270;74814;-23
2022/02/09 03:24:08;;;;;;;5.70;4.90;;;;;;;1.71;84.94;98614.27;105152;1270;61067;-24
2022/02/09 03:47:01;;;;;;;4.50;4.00;;;;;;;1.75;85.10;98626.73;105045;1271;73768;-24
2022/02/09 03:49:02;;;;;;;4.70;2.60;;;;;;;1.83;84.63;98639.64;104860;1271;74444;-23
2022/02/09 03:57:10;;;;;;;3.20;2.70;;;;;;;1.50;85.94;98636.04;105218;1270;75247;-24
2022/02/09 03:59:38;;;;;;;6.40;4.00;;;;;;;1.87;84.40;98642.55;105149;1271;74100;-24
2022/02/09 04:02:07;;;;;;;6.50;4.10;;;;;;;1.87;84.59;98643.04;105097;1271;74420;-24
2022/02/09 04:04:36;;;;;;;4.00;2.80;;;;;;;1.68;85.10;98637.86;104941;1271;61144;-24
2022/02/09 04:07:05;;;;;;;5.50;3.60;;;;;;;1.56;85.82;98648.89;104925;1271;61028;-24
2022/02/09 04:09:38;;;;;;;6.00;3.90;;;;;;;1.40;86.62;98650.54;104783;1271;75564;-24
2022/02/09 04:12:24;;;;;;;5.90;4.00;;;;;;;1.82;85.29;98652.55;104890;1271;75978;-24
2022/02/09 04:15:05;;;;;;;5.80;3.80;;;;;;;1.87;85.02;98656.92;104813;1271;73360;-24
2022/02/09 04:17:44;;;;;;;6.20;4.00;;;;;;;1.75;85.53;98654.11;104782;1272;61090;-24
2022/02/09 04:20:36;;;;;;;5.00;2.90;;;;;;;1.56;86.73;98666.86;104681;1271;61077;-25
2022/02/09 04:37:02;;;;;;;5.70;3.10;;;;;;;1.86;85.62;98669.31;105007;1272;75303;-24
2022/02/09 04:51:13;;;;;;;5.70;2.50;;;;;;;1.98;84.13;98688.18;104848;1272;74607;-24
2022/02/09 04:59:58;;;;;;;6.50;3.00;;;;;;;1.66;84.87;98692.88;104898;1271;61141;-25
2022/02/09 05:26:38;;;;;;;3.90;2.20;;;;;;;1.58;84.36;98731.09;105120;1271;61158;-24
2022/02/09 05:29:07;;;;;;;3.70;2.20;;;;;;;1.74;84.12;98741.48;105019;1271;61044;-24
2022/02/09 05:31:35;;;;;;;3.20;2.30;;;;;;;2.05;82.74;98748.77;104827;1271;77116;-24
2022/02/09 05:34:04;;;;;;;4.80;2.70;;;;;;;2.05;82.73;98752.73;104833;1272;74564;-23
2022/02/09 05:36:32;;;;;;;3.80;2.20;;;;;;;1.83;83.28;98753.82;104865;1271;73477;-23
2022/02/09 05:39:01;;;;;;;4.30;1.90;;;;;;;1.59;84.31;98759.66;104963;1270;61602;-23
2022/02/09 05:41:37;;;;;;;4.60;2.00;;;;;;;1.60;84.32;98764.04;104922;1271;61858;-23
2022/02/09 05:44:06;;;;;;;3.50;2.00;;;;;;;2.05;82.34;98772.25;104903;1271;72809;-23
2022/02/09 05:49:32;;;;;;;3.20;1.90;;;;;;;2.04;82.05;98776.22;105083;1271;74478;-23
2022/02/09 05:52:04;;;;;;;5.70;2.20;;;;;;;1.89;82.58;98777.02;105086;1272;61055;-23
2022/02/09 05:59:50;;;;;;;2.10;1.50;;;;;;;2.08;82.27;98801.90;105156;1271;75847;-23
2022/02/09 06:02:19;;;;;;;5.70;2.50;;;;;;;2.21;81.68;98800.58;105137;1271;74373;-23
2022/02/09 06:04:47;;;;;;;5.40;2.40;;;;;;;2.01;82.52;98805.68;104880;1271;61003;-23
2022/02/09 06:07:20;;;;;;;9.40;2.80;;;;;;;1.82;83.38;98804.92;104960;1271;61130;-23
2022/02/09 06:10:02;;;;;;;4.60;2.00;;;;;;;1.91;83.37;98817.12;105142;1271;75527;-23
2022/02/09 06:12:40;;;;;;;3.00;1.70;;;;;;;2.31;81.65;98813.77;105185;1270;76194;-23
2022/02/09 06:20:45;;;;;;;4.90;1.90;;;;;;;1.82;83.41;98827.81;105026;1270;60974;-23
2022/02/09 06:23:14;;;;;;;4.40;1.90;;;;;;;1.82;83.40;98830.39;104831;1271;74574;-22
2022/02/09 06:25:42;;;;;;;4.50;2.00;;;;;;;2.09;82.36;98831.14;105107;1270;75803;-22
2022/02/09 06:28:11;;;;;;;5.60;2.40;;;;;;;2.16;81.86;98829.11;104896;1271;74467;-22
2022/02/09 06:30:39;;;;;;;5.30;1.80;;;;;;;2.05;82.31;98841.60;104892;1270;61169;-26
2022/02/09 06:33:08;;;;;;;6.00;2.40;;;;;;;1.96;82.65;98842.38;105003;1270;61024;-23
2022/02/09 06:35:36;;;;;;;3.20;1.60;;;;;;;1.83;83.32;98850.05;105144;1270;75688;-22
2022/02/09 06:38:05;;;;;;;4.60;2.80;;;;;;;2.17;82.09;98851.11;105134;1271;75978;-23
2022/02/09 06:40:42;;;;;;;7.80;2.10;;;;;;;2.26;81.18;98845.02;104977;1270;74365;-23
2022/02/09 06:43:12;;;;;;;6.10;2.20;;;;;;;2.11;81.61;98855.02;104955;1274;61836;-23
2022/02/09 06:45:42;;;;;;;3.00;1.90;;;;;;;1.98;81.83;98857.73;105131;1270;61174;-23
2022/02/09 06:48:17;;;;;;;6.70;1.80;;;;;;;1.90;81.90;98858.61;105165;1270;75402;-22
2022/02/09 06:50:53;;;;;;;3.80;1.50;;;;;;;1.98;81.73;98873.78;105105;1271;76021;-22
2022/02/09 06:55:54;;;;;;;6.60;1.50;;;;;;;2.26;80.04;98881.33;104844;1271;61167;-23
2022/02/09 06:58:55;;;;;;;7.50;2.00;;;;;;;2.09;80.06;98877.21;104839;1270;61144;-23
2022/02/09 07:01:15;;;;;;;3.80;1.50;;;;;;;2.01;80.60;98884.29;105021;1271;75637;-25
2022/02/09 07:03:44;;;;;;;6.40;2.10;;;;;;;2.00;80.40;98899.89;104991;1270;76370;-23
2022/02/09 07:06:12;;;;;;;5.50;1.70;;;;;;;2.16;79.73;98894.69;104874;1270;74436;-23
2022/02/09 07:08:41;;;;;;;4.00;1.40;;;;;;;2.36;78.83;98906.72;104800;1271;61169;-23
2022/02/09 07:11:09;;;;;;;6.30;1.70;;;;;;;2.24;79.10;98906.27;104785;1271;62452;-23
2022/02/09 07:13:38;;;;;;;5.60;1.50;;;;;;;2.31;78.65;98910.20;105013;1270;75889;-24
2022/02/09 07:16:06;;;;;;;5.70;1.70;;;;;;;2.13;79.05;98907.52;105133;1270;76045;-25
2022/02/09 07:18:36;;;;;;;5.70;1.40;;;;;;;2.00;79.68;98914.27;104980;1271;73461;-26
2022/02/09 07:21:09;;;;;;;11.90;1.80;;;;;;;2.29;78.15;98916.11;104855;1270;61136;-24
2022/02/09 07:23:59;;;;;;;4.20;1.30;;;;;;;2.47;77.51;98931.52;104933;1271;61783;-24
2022/02/09 07:26:41;;;;;;;4.60;1.50;;;;;;;2.36;77.57;98931.05;104975;1270;75590;-25
2022/02/09 07:29:18;;;;;;;3.50;1.60;;;;;;;2.19;78.22;98926.90;105110;1270;75979;-25
2022/02/09 07:31:46;;;;;;;12.20;1.80;;;;;;;2.13;78.48;98933.36;105137;1271;74373;-26
2022/02/09 07:34:15;;;;;;;4.30;1.10;;;;;;;2.19;78.16;98939.09;105163;1270;62924;-24
2022/02/09 07:36:45;;;;;;;7.10;1.80;;;;;;;2.40;77.22;98931.05;105137;1270;61133;-24
2022/02/09 07:39:14;;;;;;;5.70;1.80;;;;;;;2.53;76.25;98930.58;105128;1271;74709;-25
2022/02/09 07:41:46;;;;;;;2.60;0.90;;;;;;;2.44;76.13;98932.03;105210;1271;75968;-25
2022/02/09 07:44:32;;;;;;;4.70;1.40;;;;;;;2.45;75.67;98936.95;105122;1270;72800;-23
2022/02/09 07:52:25;;;;;;;5.00;0.90;;;;;;;2.13;76.17;98946.55;105099;1271;73480;-23
2022/02/09 07:54:55;;;;;;;4.90;1.40;;;;;;;2.39;74.89;98944.09;105097;1271;75022;-24
2022/02/09 07:57:23;;;;;;;5.40;1.90;;;;;;;2.46;74.88;98947.02;104982;1270;74222;-23
2022/02/09 07:59:52;;;;;;;4.00;1.60;;;;;;;2.30;75.28;98945.90;104800;1271;61153;-22
2022/02/09 08:02:21;;;;;;;5.60;1.30;;;;;;;2.22;75.76;98950.36;104864;1271;61915;-25
2022/02/09 08:04:51;;;;;;;8.70;1.60;;;;;;;2.18;76.24;98955.56;105185;1270;74525;-26
2022/02/09 08:07:20;;;;;;;3.90;1.30;;;;;;;2.21;76.60;98958.81;105147;1271;77461;-24
2022/02/09 08:09:57;;;;;;;5.50;1.70;;;;;;;2.47;75.64;98956.73;105104;1271;74409;-25
2022/02/09 08:20:27;;;;;;;4.50;1.40;;;;;;;2.46;75.41;98971.34;105199;1271;75281;-24
2022/02/09 08:29:05;;;;;;;4.90;1.50;;;;;;;2.86;75.31;98982.56;105189;1270;61047;-23
2022/02/09 08:34:22;;;;;;;5.70;1.60;;;;;;;2.87;75.33;98986.59;104533;1272;75099;-23
2022/02/09 08:36:53;;;;;;;8.50;1.80;;;;;;;2.69;76.26;98980.16;104952;1270;74310;-23
2022/02/09 08:39:22;;;;;;;2.90;1.30;;;;;;;2.64;76.57;98984.52;104826;1271;61064;-23
2022/02/09 08:41:51;;;;;;;7.10;1.70;;;;;;;2.65;77.07;98988.43;104947;1270;61190;-23
2022/02/09 08:44:19;;;;;;;5.00;1.80;;;;;;;2.89;76.52;98989.80;105032;1270;75327;-23
2022/02/09 08:46:48;;;;;;;5.50;1.50;;;;;;;3.10;75.48;98998.14;104900;1271;74022;-23
2022/02/09 08:49:16;;;;;;;7.00;1.90;;;;;;;3.18;75.55;98998.76;104982;1270;74891;-23
2022/02/09 08:51:44;;;;;;;5.50;1.60;;;;;;;3.12;75.83;99002.02;104850;1271;61676;-22
2022/02/09 08:54:13;;;;;;;4.90;2.60;;;;;;;3.00;76.31;98998.34;105003;1269;61834;-23
2022/02/09 08:56:42;;;;;;;6.30;2.10;;;;;;;3.07;76.39;99002.92;104834;1271;74440;-24
2022/02/09 08:59:11;;;;;;;6.80;2.40;;;;;;;3.14;76.44;99008.45;104998;1270;76053;-24
2022/02/09 09:01:41;;;;;;;5.80;2.40;;;;;;;2.89;77.24;99003.52;105065;1270;74668;-25
2022/02/09 09:04:24;;;;;;;5.50;2.20;;;;;;;3.30;75.76;99010.52;104975;1271;61061;-25
2022/02/09 09:06:56;;;;;;;4.80;2.00;;;;;;;3.43;74.81;99007.79;104900;1271;62129;-28
2022/02/09 10:04:31;;;;;;;6.90;2.30;;;;;;;3.19;73.04;99017.77;105150;1271;75283;-22
2022/02/09 10:33:10;;;;;;;6.00;1.70;;;;;;;3.08;71.97;99032.91;105100;1271;75598;-23
2022/02/09 10:35:47;;;;;;;11.40;3.10;;;;;;;2.99;72.82;99039.16;104766;1271;76015;-23
2022/02/09 10:38:33;;;;;;;8.20;2.40;;;;;;;3.28;72.07;99036.69;105087;1270;74463;-22
2022/02/09 10:41:22;;;;;;;7.50;3.30;;;;;;;3.78;70.74;99038.38;105085;1270;61278;-23
2022/02/09 10:44:08;;;;;;;7.60;2.50;;;;;;;4.02;69.83;99032.98;105096;1270;61036;-22
2022/02/09 10:46:48;;;;;;;4.70;1.70;;;;;;;3.82;70.32;99035.79;105114;1270;74094;-24
2022/02/09 10:49:20;;;;;;;5.40;2.50;;;;;;;3.66;71.32;99038.33;105183;1271;76291;-22
2022/02/09 10:52:08;;;;;;;4.10;1.60;;;;;;;3.84;71.23;99040.29;105132;1270;74463;-22
2022/02/09 10:54:36;;;;;;;10.30;2.80;;;;;;;3.80;71.66;99039.48;105102;1270;61240;-24
2022/02/09 10:57:07;;;;;;;3.50;1.80;;;;;;;3.46;72.74;99033.73;104968;1270;61110;-24
2022/02/09 10:59:37;;;;;;;11.00;2.40;;;;;;;3.54;72.58;99035.86;104907;1270;75562;-24
2022/02/09 11:02:06;;;;;;;4.60;2.20;;;;;;;3.37;73.08;99029.36;104910;1270;73215;-24
2022/02/09 11:04:35;;;;;;;6.70;2.00;;;;;;;3.31;72.18;99019.90;104927;1270;74829;-24
2022/02/09 11:07:04;;;;;;;7.60;1.90;;;;;;;3.60;71.24;99030.59;104760;1270;61119;-24
2022/02/09 11:09:51;;;;;;;6.90;2.40;;;;;;;3.89;70.56;99041.78;104969;1270;61086;-24
2022/02/09 11:12:20;;;;;;;4.50;1.60;;;;;;;3.83;70.21;99042.61;104954;1271;75501;-22
2022/02/09 11:14:49;;;;;;;9.10;1.80;;;;;;;3.71;70.07;99044.95;105009;1270;75784;-22
2022/02/09 11:17:17;;;;;;;9.40;2.30;;;;;;;3.60;70.12;99048.09;105092;1270;73377;-22
2022/02/09 11:19:45;;;;;;;3.30;1.20;;;;;;;3.56;70.77;99056.56;104972;1271;61045;-23
2022/02/09 11:22:23;;;;;;;7.00;2.00;;;;;;;3.56;71.16;99058.79;105048;1270;61353;-22
2022/02/09 11:25:25;;;;;;;8.80;2.60;;;;;;;3.36;71.33;99062.20;105073;1270;72991;-22
2022/02/09 11:28:30;;;;;;;1.80;1.20;;;;;;;3.26;72.19;99061.52;104969;1270;73190;-22
2022/02/09 11:31:12;;;;;;;6.40;2.00;;;;;;;3.34;72.30;99074.14;104851;1271;71597;-23
2022/02/09 11:34:02;;;;;;;10.00;2.50;;;;;;;3.62;71.44;99071.33;104857;1270;61255;-21
2022/02/09 11:39:21;;;;;;;8.20;2.70;;;;;;;3.62;70.39;99068.91;104934;1270;75543;-25
2022/02/09 11:42:25;;;;;;;2.60;1.30;;;;;;;3.60;70.83;99074.35;104847;1270;75216;-24
2022/02/09 11:45:03;;;;;;;8.50;2.20;;;;;;;3.61;70.48;99071.23;104916;1270;73295;-24
2022/02/09 11:48:05;;;;;;;6.30;2.30;;;;;;;3.34;71.69;99074.66;104935;1270;61406;-24
2022/02/09 11:50:56;;;;;;;6.70;2.40;;;;;;;3.18;71.56;99072.73;104878;1270;61141;-22
2022/02/09 12:11:27;;;;;;;4.50;1.30;;;;;;;3.70;69.47;99070.08;105105;1270;75498;-24
2022/02/09 12:14:03;;;;;;;9.10;1.70;;;;;;;3.50;70.28;99073.99;105153;1270;74161;-22
2022/02/09 12:16:40;;;;;;;4.60;2.20;;;;;;;3.42;70.89;99077.88;105337;1270;61130;-23
2022/02/09 12:19:12;;;;;;;7.50;1.70;;;;;;;3.28;71.51;99078.55;104898;1271;61158;-22
2022/02/09 12:24:34;;;;;;;6.20;1.80;;;;;;;3.08;72.33;99089.34;105103;1271;74411;-22
2022/02/09 12:27:15;;;;;;;5.80;2.00;;;;;;;3.75;70.26;99099.19;104929;1271;73078;-23
2022/02/09 12:29:46;;;;;;;4.90;2.30;;;;;;;3.73;69.64;99096.70;104921;1271;61211;-22
2022/02/09 12:32:14;;;;;;;7.30;1.80;;;;;;;3.59;69.81;99101.39;104775;1270;61690;-22
2022/02/09 12:34:51;;;;;;;5.10;1.80;;;;;;;3.53;70.19;99106.98;105306;1270;75600;-22
2022/02/09 12:37:20;;;;;;;5.20;2.00;;;;;;;3.36;70.79;99110.10;105099;1270;72181;-23
2022/02/09 12:40:03;;;;;;;4.70;2.00;;;;;;;3.39;70.90;99108.36;105306;1269;72542;-22
2022/02/09 12:42:35;;;;;;;7.70;2.30;;;;;;;3.13;71.43;99106.08;105164;1271;62458;-22
2022/02/09 12:45:07;;;;;;;5.30;1.60;;;;;;;2.97;72.11;99102.90;104811;1271;61850;-22
2022/02/09 12:47:51;;;;;;;7.10;2.40;;;;;;;2.92;72.57;99111.39;105157;1271;73550;-23
2022/02/09 12:50:24;;;;;;;5.50;1.90;;;;;;;3.04;72.28;99107.90;105198;1271;72910;-22
2022/02/09 12:52:53;;;;;;;6.20;1.90;;;;;;;3.40;70.52;99111.75;105137;1269;74244;-22
2022/02/09 12:55:24;;;;;;;7.00;1.90;;;;;;;3.43;70.22;99111.81;105133;1271;61148;-22
2022/02/09 12:58:05;;;;;;;3.30;1.40;;;;;;;3.38;70.19;99116.86;104764;1271;62046;-22
2022/02/09 13:00:40;;;;;;;3.70;1.40;;;;;;;3.10;71.41;99119.27;105047;1270;75579;-22
2022/02/09 13:03:11;;;;;;;5.30;1.30;;;;;;;3.24;71.01;99123.36;105097;1270;75008;-25
2022/02/09 13:05:51;;;;;;;9.20;1.80;;;;;;;3.15;71.24;99126.90;105149;1271;73381;-22
2022/02/09 13:08:20;;;;;;;6.70;1.70;;;;;;;3.09;71.67;99133.75;104936;1271;61070;-23
2022/02/09 13:10:50;;;;;;;8.30;1.90;;;;;;;2.94;71.92;99134.08;105138;1269;61883;-22
2022/02/09 13:13:28;;;;;;;10.50;2.60;;;;;;;3.19;71.40;99137.87;105068;1270;74829;-24
2022/02/09 13:51:48;;;;;;;5.60;1.60;;;;;;;3.37;70.17;99139.06;105299;1270;74163;-22
2022/02/09 14:17:13;;;;;;;5.30;1.70;;;;;;;3.24;68.74;99151.01;105146;1271;61089;-22
2022/02/09 14:52:51;;;;;;;9.20;1.40;;;;;;;2.41;70.55;99162.82;104899;1271;74744;-23
2022/02/09 14:55:30;;;;;;;6.70;1.70;;;;;;;2.28;70.70;99158.42;105019;1270;73014;-23
2022/02/09 14:58:10;;;;;;;4.30;1.30;;;;;;;2.25;71.15;99170.37;105304;1270;62911;-23
2022/02/09 15:01:32;;;;;;;6.00;1.60;;;;;;;2.89;69.19;99177.71;105292;1270;61029;-23
2022/02/09 15:09:06;;;;;;;6.20;1.50;;;;;;;3.15;67.87;99176.31;105099;1271;73558;-23
2022/02/09 15:12:01;;;;;;;6.20;1.40;;;;;;;2.95;68.43;99178.67;105149;1270;61154;-23
2022/02/09 15:22:38;;;;;;;6.60;1.30;;;;;;;2.26;71.05;99197.22;105322;1270;74456;-23
2022/02/09 15:25:16;;;;;;;3.30;1.20;;;;;;;2.12;71.74;99204.05;105300;1270;61056;-23
2022/02/09 15:27:47;;;;;;;5.50;1.00;;;;;;;2.02;72.36;99202.92;105142;1270;61078;-23
2022/02/09 15:30:15;;;;;;;4.90;1.10;;;;;;;2.53;71.22;99200.28;105334;1270;75504;-23
2022/02/09 15:32:49;;;;;;;4.40;1.60;;;;;;;3.11;69.12;99201.39;105039;1270;74568;-23
2022/02/09 15:35:37;;;;;;;3.50;1.10;;;;;;;3.17;68.52;99203.54;105113;1270;72944;-22
2022/02/09 15:38:21;;;;;;;5.10;1.70;;;;;;;2.92;69.11;99201.23;105002;1270;62237;-22
2022/02/09 15:40:58;;;;;;;6.10;1.60;;;;;;;2.69;69.79;99203.00;104975;1269;61032;-23
2022/02/09 15:44:02;;;;;;;4.20;1.40;;;;;;;2.48;70.16;99200.88;104944;1271;75417;-22
2022/02/09 15:58:09;;;;;;;4.10;1.10;;;;;;;1.33;74.47;99208.86;104849;1271;73032;-23
2022/02/09 16:06:26;;;;;;;5.80;2.00;;;;;;;2.60;70.36;99215.58;105161;1271;61091;-22
2022/02/09 16:22:34;;;;;;;;;;;;;;;1.15;75.58;99228.40;105027;1271;61068;-23
2022/02/09 16:44:22;;;;;;;4.40;1.80;;;;;;;1.60;73.36;99224.90;105240;1270;73491;-22
2022/02/09 16:46:56;;;;;;;10.20;2.70;;;;;;;1.35;73.80;99220.93;105304;1269;61447;-22
2022/02/09 16:52:10;;;;;;;3.50;1.20;;;;;;;1.01;75.69;99222.61;105307;1269;75756;-22
2022/02/09 16:54:49;;;;;;;5.50;1.80;;;;;;;1.58;75.03;99224.61;105284;1270;75930;-22
2022/02/09 17:19:52;;;;;;;6.30;2.00;;;;;;;1.45;75.18;99220.88;105228;1270;74480;-23
2022/02/09 17:22:21;;;;;;;5.40;2.10;;;;;;;1.92;73.24;99220.14;104996;1270;76012;-23
2022/02/09 17:24:52;;;;;;;4.90;1.80;;;;;;;1.94;72.96;99220.70;104994;1270;73440;-24
2022/02/09 17:27:21;;;;;;;4.40;1.90;;;;;;;1.77;73.40;99221.43;104984;1271;61396;-23
2022/02/09 17:34:02;;;;;;;4.30;1.20;;;;;;;1.27;75.31;99219.71;104725;1270;75590;-23
2022/02/09 17:36:00;;;;;;;5.50;2.00;;;;;;;1.02;76.89;99220.04;105022;1270;74073;-24
2022/02/09 17:57:53;;;;;;;5.80;2.90;;;;;;;0.96;78.44;99197.67;105263;1270;62515;-23
2022/02/09 18:00:22;;;;;;;5.90;2.00;;;;;;;0.85;78.74;99196.06;105127;1271;75616;-24
2022/02/09 18:02:53;;;;;;;9.20;2.60;;;;;;;1.37;77.95;99197.95;105270;1271;74718;-23
2022/02/09 18:05:34;;;;;;;4.00;2.20;;;;;;;1.96;75.63;99199.91;104916;1271;73090;-23
2022/02/09 18:08:09;;;;;;;8.80;3.00;;;;;;;2.00;75.02;99198.90;105297;1270;61057;-23
2022/02/09 18:27:09;;;;;;;5.60;2.80;;;;;;;1.55;78.08;99175.98;105213;1270;75718;-23
2022/02/09 19:04:01;;;;;;;6.70;3.00;;;;;;;1.24;79.60;99190.24;105221;1270;61166;-23
2022/02/09 19:17:49;;;;;;;4.10;2.50;;;;;;;2.01;77.23;99194.21;105305;1270;61104;-23
2022/02/09 19:31:37;;;;;;;5.60;3.00;;;;;;;2.77;75.02;99196.45;104621;1269;61102;-22
2022/02/09 19:48:20;;;;;;;7.00;3.00;;;;;;;2.76;76.66;99193.58;105324;1270;75599;-22
2022/02/09 19:56:25;;;;;;;5.40;2.40;;;;;;;3.14;74.26;99190.61;104999;1270;61038;-22
2022/02/09 19:59:09;;;;;;;4.60;2.90;;;;;;;2.91;75.03;99186.21;105089;1271;61672;-22
2022/02/09 20:01:41;;;;;;;6.60;3.10;;;;;;;2.72;75.46;99178.35;105171;1271;75362;-22
2022/02/09 20:04:10;;;;;;;5.90;2.90;;;;;;;2.54;76.20;99178.16;105287;1270;75730;-22
2022/02/09 20:06:39;;;;;;;8.00;2.40;;;;;;;2.44;76.59;99176.23;105273;1270;73625;-22
2022/02/09 20:09:26;;;;;;;5.40;2.10;;;;;;;3.08;75.80;99170.46;105268;1270;61068;-23
2022/02/09 20:11:55;;;;;;;6.40;3.50;;;;;;;3.57;74.33;99167.89;105299;1270;61398;-22
2022/02/09 20:14:40;;;;;;;5.00;2.60;;;;;;;3.58;73.86;99166.11;105266;1270;74355;-22
2022/02/09 20:17:10;;;;;;;5.40;2.80;;;;;;;3.41;74.03;99167.48;104811;1271;75675;-22
2022/02/09 20:19:41;;;;;;;4.40;2.70;;;;;;;3.18;74.88;99161.93;105055;1271;72617;-23
2022/02/09 20:22:10;;;;;;;5.00;2.60;;;;;;;2.95;76.10;99164.23;105029;1269;61039;-23
2022/02/09 20:24:39;;;;;;;3.50;2.10;;;;;;;2.76;76.88;99159.30;104972;1270;60997;-23
2022/02/09 20:27:13;;;;;;;5.20;1.90;;;;;;;2.62;78.11;99157.90;104952;1270;74977;-23
2022/02/09 20:29:41;;;;;;;5.10;2.40;;;;;;;3.09;78.62;99159.08;104797;1270;187496;-23
2022/02/09 20:34:49;;;;;;;4.80;2.80;;;;;;;3.54;77.21;99148.63;105027;1271;61147;-23
2022/02/09 20:37:19;;;;;;;6.40;2.90;;;;;;;3.31;78.76;99147.23;104763;1271;61245;-22
2022/02/09 20:40:10;;;;;;;4.30;2.60;;;;;;;3.04;80.74;99147.32;104908;1271;75545;-23
2022/02/09 20:42:49;;;;;;;3.60;2.40;;;;;;;2.80;82.45;99142.11;104940;1271;75843;-23
2022/02/09 20:45:31;;;;;;;4.50;2.20;;;;;;;2.75;83.24;99144.41;104935;1271;74553;-23
2022/02/09 20:48:10;;;;;;;8.10;2.60;;;;;;;3.35;81.67;99146.48;104804;1271;61090;-23
2022/02/09 20:50:40;;;;;;;9.60;2.80;;;;;;;3.64;80.17;99145.05;104986;1271;61015;-23
2022/02/09 20:53:09;;;;;;;6.10;2.60;;;;;;;3.58;79.85;99144.65;104932;1271;73577;-23
2022/02/09 20:55:38;;;;;;;8.40;2.80;;;;;;;3.40;80.59;99152.09;105025;1271;74581;-23
2022/02/09 20:58:07;;;;;;;4.40;2.90;;;;;;;3.17;81.70;99150.48;104977;1271;74572;-23
2022/02/09 21:06:08;;;;;;;3.30;2.10;;;;;;;3.76;80.71;99145.83;104933;1269;74958;-23
2022/02/09 21:08:55;;;;;;;4.60;2.50;;;;;;;3.71;80.79;99144.55;104985;1271;76005;-23
2022/02/09 21:49:14;;;;;;;3.60;2.50;;;;;;;3.51;84.49;99130.63;105142;1271;75363;-23
2022/02/09 22:28:36;;;;;;;5.50;3.10;;;;;;;4.06;83.65;99103.39;104466;1284;61749;-24
2022/02/09 22:55:48;;;;;;;3.90;3.10;;;;;;;4.48;83.20;99085.30;104493;1284;62391;-22
2022/02/09 22:58:16;;;;;;;5.20;2.40;;;;;;;4.29;84.37;99072.77;104501;1284;74777;-22
2022/02/09 23:01:00;;;;;;;4.20;2.50;;;;;;;4.56;83.93;99058.34;104512;1284;76135;-22
2022/02/09 23:58:40;;;;;;;6.20;3.70;;;;;;;5.31;80.75;99060.24;104885;1273;74323;-22
